sensor_id;sensor_type;location;lat;lon;timestamp;P1;durP1;ratioP1;P2;durP2;ratioP2
83862;SDS011;73888;50.844;-0.132;2024-01-06T00:00:20;3.00;;;1.70;;
83862;SDS011;73888;50.844;-0.132;2024-01-06T00:02:48;2.13;;;0.90;;
83862;SDS011;73888;50.844;-0.132;2024-01-06T00:05:15;2.85;;;1.55;;
83862;SDS011;73888;50.844;-0.132;2024-01-06T00:07:47;3.00;;;1.20;;
83862;SDS011;73888;50.844;-0.132;2024-01-06T00:10:15;3.38;;;1.58;;
83862;SDS011;73888;50.844;-0.132;2024-01-06T00:12:47;2.08;;;0.93;;
83862;SDS011;73888;50.844;-0.132;2024-01-06T00:15:14;2.75;;;1.23;;
83862;SDS011;73888;50.844;-0.132;2024-01-06T00:17:40;2.15;;;1.25;;
83862;SDS011;73888;50.844;-0.132;2024-01-06T00:20:13;2.63;;;1.00;;
83862;SDS011;73888;50.844;-0.132;2024-01-06T00:22:39;3.45;;;1.90;;
83862;SDS011;73888;50.844;-0.132;2024-01-06T00:27:54;2.70;;;1.10;;
83862;SDS011;73888;50.844;-0.132;2024-01-06T00:30:20;4.22;;;1.60;;
83862;SDS011;73888;50.844;-0.132;2024-01-06T00:32:46;2.65;;;1.27;;
83862;SDS011;73888;50.844;-0.132;2024-01-06T00:35:12;2.58;;;1.35;;
83862;SDS011;73888;50.844;-0.132;2024-01-06T00:37:40;2.15;;;1.10;;
83862;SDS011;73888;50.844;-0.132;2024-01-06T00:40:06;2.17;;;1.10;;
83862;SDS011;73888;50.844;-0.132;2024-01-06T00:42:34;1.83;;;0.83;;
83862;SDS011;73888;50.844;-0.132;2024-01-06T00:45:01;2.08;;;1.02;;
83862;SDS011;73888;50.844;-0.132;2024-01-06T00:47:28;1.75;;;0.77;;
83862;SDS011;73888;50.844;-0.132;2024-01-06T00:49:54;1.77;;;0.85;;
83862;SDS011;73888;50.844;-0.132;2024-01-06T00:52:22;2.00;;;1.23;;
83862;SDS011;73888;50.844;-0.132;2024-01-06T00:54:51;1.40;;;0.70;;
83862;SDS011;73888;50.844;-0.132;2024-01-06T00:57:19;1.70;;;0.80;;
83862;SDS011;73888;50.844;-0.132;2024-01-06T00:59:52;1.65;;;0.68;;
83862;SDS011;73888;50.844;-0.132;2024-01-06T01:02:23;4.35;;;1.52;;
83862;SDS011;73888;50.844;-0.132;2024-01-06T01:04:50;4.40;;;2.00;;
83862;SDS011;73888;50.844;-0.132;2024-01-06T01:07:18;2.53;;;1.00;;
83862;SDS011;73888;50.844;-0.132;2024-01-06T01:09:47;2.97;;;1.58;;
83862;SDS011;73888;50.844;-0.132;2024-01-06T01:12:13;3.72;;;1.77;;
83862;SDS011;73888;50.844;-0.132;2024-01-06T01:14:39;2.67;;;1.02;;
83862;SDS011;73888;50.844;-0.132;2024-01-06T01:17:05;2.08;;;0.88;;
83862;SDS011;73888;50.844;-0.132;2024-01-06T01:19:34;2.28;;;0.70;;
83862;SDS011;73888;50.844;-0.132;2024-01-06T01:22:00;2.28;;;0.90;;
83862;SDS011;73888;50.844;-0.132;2024-01-06T01:24:29;2.70;;;1.35;;
83862;SDS011;73888;50.844;-0.132;2024-01-06T01:26:56;2.75;;;1.33;;
83862;SDS011;73888;50.844;-0.132;2024-01-06T01:29:22;3.23;;;1.73;;
83862;SDS011;73888;50.844;-0.132;2024-01-06T01:31:53;3.10;;;1.45;;
83862;SDS011;73888;50.844;-0.132;2024-01-06T01:34:20;3.67;;;1.73;;
83862;SDS011;73888;50.844;-0.132;2024-01-06T01:36:46;2.95;;;1.00;;
83862;SDS011;73888;50.844;-0.132;2024-01-06T01:39:14;2.20;;;1.20;;
83862;SDS011;73888;50.844;-0.132;2024-01-06T01:41:40;1.53;;;0.57;;
83862;SDS011;73888;50.844;-0.132;2024-01-06T01:44:08;1.65;;;0.65;;
83862;SDS011;73888;50.844;-0.132;2024-01-06T01:46:34;2.40;;;1.02;;
83862;SDS011;73888;50.844;-0.132;2024-01-06T01:49:02;2.00;;;1.10;;
83862;SDS011;73888;50.844;-0.132;2024-01-06T01:51:29;1.75;;;0.75;;
83862;SDS011;73888;50.844;-0.132;2024-01-06T01:56:52;3.25;;;1.38;;
83862;SDS011;73888;50.844;-0.132;2024-01-06T01:59:20;3.00;;;1.38;;
83862;SDS011;73888;50.844;-0.132;2024-01-06T02:01:49;2.70;;;1.30;;
83862;SDS011;73888;50.844;-0.132;2024-01-06T02:04:15;3.28;;;1.55;;
83862;SDS011;73888;50.844;-0.132;2024-01-06T02:09:36;2.13;;;0.80;;
83862;SDS011;73888;50.844;-0.132;2024-01-06T02:12:04;1.55;;;0.77;;
83862;SDS011;73888;50.844;-0.132;2024-01-06T02:14:30;2.05;;;1.00;;
83862;SDS011;73888;50.844;-0.132;2024-01-06T02:17:00;1.92;;;1.20;;
83862;SDS011;73888;50.844;-0.132;2024-01-06T02:19:26;1.93;;;0.83;;
83862;SDS011;73888;50.844;-0.132;2024-01-06T02:21:54;2.10;;;0.93;;
83862;SDS011;73888;50.844;-0.132;2024-01-06T02:24:22;1.92;;;1.35;;
83862;SDS011;73888;50.844;-0.132;2024-01-06T02:26:49;2.70;;;1.00;;
83862;SDS011;73888;50.844;-0.132;2024-01-06T02:29:15;1.73;;;0.80;;
83862;SDS011;73888;50.844;-0.132;2024-01-06T02:31:41;1.70;;;0.60;;
83862;SDS011;73888;50.844;-0.132;2024-01-06T02:34:11;1.67;;;0.88;;
83862;SDS011;73888;50.844;-0.132;2024-01-06T02:36:37;1.83;;;1.17;;
83862;SDS011;73888;50.844;-0.132;2024-01-06T02:39:03;1.48;;;0.60;;
83862;SDS011;73888;50.844;-0.132;2024-01-06T02:41:30;1.95;;;0.70;;
83862;SDS011;73888;50.844;-0.132;2024-01-06T02:44:02;1.83;;;0.70;;
83862;SDS011;73888;50.844;-0.132;2024-01-06T02:46:29;1.70;;;0.70;;
83862;SDS011;73888;50.844;-0.132;2024-01-06T02:48:55;1.52;;;0.70;;
83862;SDS011;73888;50.844;-0.132;2024-01-06T02:51:24;1.73;;;0.85;;
83862;SDS011;73888;50.844;-0.132;2024-01-06T02:53:51;2.58;;;1.40;;
83862;SDS011;73888;50.844;-0.132;2024-01-06T02:56:17;1.55;;;0.80;;
83862;SDS011;73888;50.844;-0.132;2024-01-06T02:58:43;1.80;;;1.13;;
83862;SDS011;73888;50.844;-0.132;2024-01-06T03:01:11;1.83;;;0.82;;
83862;SDS011;73888;50.844;-0.132;2024-01-06T03:03:37;1.92;;;0.80;;
83862;SDS011;73888;50.844;-0.132;2024-01-06T03:06:03;1.77;;;0.83;;
83862;SDS011;73888;50.844;-0.132;2024-01-06T03:08:29;2.10;;;1.20;;
83862;SDS011;73888;50.844;-0.132;2024-01-06T03:10:57;2.20;;;1.20;;
83862;SDS011;73888;50.844;-0.132;2024-01-06T03:13:23;2.28;;;1.30;;
83862;SDS011;73888;50.844;-0.132;2024-01-06T03:15:49;1.80;;;0.90;;
83862;SDS011;73888;50.844;-0.132;2024-01-06T03:18:19;1.95;;;1.10;;
83862;SDS011;73888;50.844;-0.132;2024-01-06T03:20:48;2.05;;;1.23;;
83862;SDS011;73888;50.844;-0.132;2024-01-06T03:23:15;2.17;;;1.20;;
83862;SDS011;73888;50.844;-0.132;2024-01-06T03:25:44;1.92;;;1.08;;
83862;SDS011;73888;50.844;-0.132;2024-01-06T03:28:10;1.90;;;1.20;;
83862;SDS011;73888;50.844;-0.132;2024-01-06T03:30:36;1.92;;;1.20;;
83862;SDS011;73888;50.844;-0.132;2024-01-06T03:33:02;2.33;;;1.33;;
83862;SDS011;73888;50.844;-0.132;2024-01-06T03:35:29;4.30;;;2.25;;
83862;SDS011;73888;50.844;-0.132;2024-01-06T03:37:55;4.10;;;1.80;;
83862;SDS011;73888;50.844;-0.132;2024-01-06T03:40:21;3.42;;;1.65;;
83862;SDS011;73888;50.844;-0.132;2024-01-06T03:42:48;2.63;;;1.42;;
83862;SDS011;73888;50.844;-0.132;2024-01-06T03:45:16;3.10;;;1.70;;
83862;SDS011;73888;50.844;-0.132;2024-01-06T03:47:45;1.83;;;0.80;;
83862;SDS011;73888;50.844;-0.132;2024-01-06T03:50:11;2.38;;;1.20;;
83862;SDS011;73888;50.844;-0.132;2024-01-06T03:52:40;2.23;;;0.77;;
83862;SDS011;73888;50.844;-0.132;2024-01-06T03:55:07;3.33;;;1.10;;
83862;SDS011;73888;50.844;-0.132;2024-01-06T03:57:33;2.78;;;1.10;;
83862;SDS011;73888;50.844;-0.132;2024-01-06T04:00:01;3.30;;;1.30;;
83862;SDS011;73888;50.844;-0.132;2024-01-06T04:02:27;2.90;;;1.30;;
83862;SDS011;73888;50.844;-0.132;2024-01-06T04:05:00;2.23;;;1.03;;
83862;SDS011;73888;50.844;-0.132;2024-01-06T04:07:29;2.50;;;1.52;;
83862;SDS011;73888;50.844;-0.132;2024-01-06T04:09:55;2.42;;;1.42;;
83862;SDS011;73888;50.844;-0.132;2024-01-06T04:12:21;2.45;;;1.30;;
83862;SDS011;73888;50.844;-0.132;2024-01-06T04:14:49;1.80;;;0.80;;
83862;SDS011;73888;50.844;-0.132;2024-01-06T04:17:15;2.00;;;0.80;;
83862;SDS011;73888;50.844;-0.132;2024-01-06T04:19:41;2.80;;;1.30;;
83862;SDS011;73888;50.844;-0.132;2024-01-06T04:22:08;2.50;;;1.48;;
83862;SDS011;73888;50.844;-0.132;2024-01-06T04:24:35;2.67;;;1.38;;
83862;SDS011;73888;50.844;-0.132;2024-01-06T04:27:03;2.63;;;1.33;;
83862;SDS011;73888;50.844;-0.132;2024-01-06T04:29:35;2.65;;;1.10;;
83862;SDS011;73888;50.844;-0.132;2024-01-06T04:32:01;2.95;;;1.60;;
83862;SDS011;73888;50.844;-0.132;2024-01-06T04:34:34;2.20;;;0.55;;
83862;SDS011;73888;50.844;-0.132;2024-01-06T04:37:02;2.50;;;1.10;;
83862;SDS011;73888;50.844;-0.132;2024-01-06T04:39:28;2.67;;;1.40;;
83862;SDS011;73888;50.844;-0.132;2024-01-06T04:41:57;3.17;;;1.55;;
83862;SDS011;73888;50.844;-0.132;2024-01-06T04:44:24;2.88;;;1.50;;
83862;SDS011;73888;50.844;-0.132;2024-01-06T04:46:50;2.38;;;0.93;;
83862;SDS011;73888;50.844;-0.132;2024-01-06T04:49:16;2.63;;;1.35;;
83862;SDS011;73888;50.844;-0.132;2024-01-06T04:51:42;2.10;;;1.35;;
83862;SDS011;73888;50.844;-0.132;2024-01-06T04:54:09;1.83;;;0.98;;
83862;SDS011;73888;50.844;-0.132;2024-01-06T04:56:36;1.60;;;0.60;;
83862;SDS011;73888;50.844;-0.132;2024-01-06T04:59:03;1.83;;;0.77;;
83862;SDS011;73888;50.844;-0.132;2024-01-06T05:01:35;1.50;;;0.70;;
83862;SDS011;73888;50.844;-0.132;2024-01-06T05:04:01;2.13;;;0.88;;
83862;SDS011;73888;50.844;-0.132;2024-01-06T05:06:29;2.10;;;0.90;;
83862;SDS011;73888;50.844;-0.132;2024-01-06T05:08:54;3.28;;;1.45;;
83862;SDS011;73888;50.844;-0.132;2024-01-06T05:11:23;4.55;;;1.98;;
83862;SDS011;73888;50.844;-0.132;2024-01-06T05:13:49;3.20;;;1.35;;
83862;SDS011;73888;50.844;-0.132;2024-01-06T05:16:15;3.40;;;1.85;;
83862;SDS011;73888;50.844;-0.132;2024-01-06T05:18:41;3.10;;;1.23;;
83862;SDS011;73888;50.844;-0.132;2024-01-06T05:21:10;2.92;;;1.50;;
83862;SDS011;73888;50.844;-0.132;2024-01-06T05:23:36;2.92;;;1.52;;
83862;SDS011;73888;50.844;-0.132;2024-01-06T05:26:03;2.33;;;0.90;;
83862;SDS011;73888;50.844;-0.132;2024-01-06T05:28:32;3.47;;;1.95;;
83862;SDS011;73888;50.844;-0.132;2024-01-06T05:31:00;3.72;;;1.73;;
83862;SDS011;73888;50.844;-0.132;2024-01-06T05:33:32;4.70;;;2.40;;
83862;SDS011;73888;50.844;-0.132;2024-01-06T05:35:59;5.07;;;2.83;;
83862;SDS011;73888;50.844;-0.132;2024-01-06T05:38:25;5.47;;;2.72;;
83862;SDS011;73888;50.844;-0.132;2024-01-06T05:40:52;7.10;;;3.53;;
83862;SDS011;73888;50.844;-0.132;2024-01-06T05:43:22;6.05;;;3.08;;
83862;SDS011;73888;50.844;-0.132;2024-01-06T05:45:47;4.47;;;2.33;;
83862;SDS011;73888;50.844;-0.132;2024-01-06T05:48:13;4.82;;;2.40;;
83862;SDS011;73888;50.844;-0.132;2024-01-06T05:50:41;4.38;;;2.20;;
83862;SDS011;73888;50.844;-0.132;2024-01-06T05:53:07;4.13;;;1.92;;
83862;SDS011;73888;50.844;-0.132;2024-01-06T05:55:33;5.20;;;2.27;;
83862;SDS011;73888;50.844;-0.132;2024-01-06T05:58:02;4.82;;;2.17;;
83862;SDS011;73888;50.844;-0.132;2024-01-06T06:00:28;5.18;;;2.47;;
83862;SDS011;73888;50.844;-0.132;2024-01-06T06:02:58;3.90;;;1.75;;
83862;SDS011;73888;50.844;-0.132;2024-01-06T06:05:24;3.40;;;1.75;;
83862;SDS011;73888;50.844;-0.132;2024-01-06T06:08:00;3.13;;;1.23;;
83862;SDS011;73888;50.844;-0.132;2024-01-06T06:10:26;3.35;;;1.70;;
83862;SDS011;73888;50.844;-0.132;2024-01-06T06:13:05;4.18;;;1.70;;
83862;SDS011;73888;50.844;-0.132;2024-01-06T06:15:34;3.78;;;1.40;;
83862;SDS011;73888;50.844;-0.132;2024-01-06T06:18:00;3.78;;;1.75;;
83862;SDS011;73888;50.844;-0.132;2024-01-06T06:20:26;4.70;;;2.13;;
83862;SDS011;73888;50.844;-0.132;2024-01-06T06:22:52;3.80;;;1.83;;
83862;SDS011;73888;50.844;-0.132;2024-01-06T06:25:18;3.88;;;2.13;;
83862;SDS011;73888;50.844;-0.132;2024-01-06T06:27:47;3.70;;;1.88;;
83862;SDS011;73888;50.844;-0.132;2024-01-06T06:30:13;3.70;;;1.75;;
83862;SDS011;73888;50.844;-0.132;2024-01-06T06:32:39;3.17;;;1.13;;
83862;SDS011;73888;50.844;-0.132;2024-01-06T06:35:08;2.55;;;1.02;;
83862;SDS011;73888;50.844;-0.132;2024-01-06T06:37:34;2.97;;;1.35;;
83862;SDS011;73888;50.844;-0.132;2024-01-06T06:40:00;2.45;;;0.70;;
83862;SDS011;73888;50.844;-0.132;2024-01-06T06:42:26;2.20;;;0.73;;
83862;SDS011;73888;50.844;-0.132;2024-01-06T06:44:54;3.97;;;2.22;;
83862;SDS011;73888;50.844;-0.132;2024-01-06T06:47:22;3.53;;;1.67;;
83862;SDS011;73888;50.844;-0.132;2024-01-06T06:49:49;2.50;;;0.85;;
83862;SDS011;73888;50.844;-0.132;2024-01-06T06:52:17;3.03;;;0.80;;
83862;SDS011;73888;50.844;-0.132;2024-01-06T06:54:43;3.83;;;1.48;;
83862;SDS011;73888;50.844;-0.132;2024-01-06T06:57:09;4.13;;;1.77;;
83862;SDS011;73888;50.844;-0.132;2024-01-06T06:59:35;4.57;;;2.28;;
83862;SDS011;73888;50.844;-0.132;2024-01-06T07:04:50;5.00;;;2.00;;
83862;SDS011;73888;50.844;-0.132;2024-01-06T07:07:16;4.97;;;2.03;;
83862;SDS011;73888;50.844;-0.132;2024-01-06T07:09:42;4.88;;;2.30;;
83862;SDS011;73888;50.844;-0.132;2024-01-06T07:12:09;4.93;;;2.60;;
83862;SDS011;73888;50.844;-0.132;2024-01-06T07:14:35;4.27;;;1.90;;
83862;SDS011;73888;50.844;-0.132;2024-01-06T07:17:05;4.05;;;1.58;;
83862;SDS011;73888;50.844;-0.132;2024-01-06T07:19:36;3.67;;;1.85;;
83862;SDS011;73888;50.844;-0.132;2024-01-06T07:22:02;4.07;;;1.58;;
83862;SDS011;73888;50.844;-0.132;2024-01-06T07:24:31;3.47;;;1.65;;
83862;SDS011;73888;50.844;-0.132;2024-01-06T07:27:00;4.00;;;1.53;;
83862;SDS011;73888;50.844;-0.132;2024-01-06T07:29:29;3.60;;;1.13;;
83862;SDS011;73888;50.844;-0.132;2024-01-06T07:34:34;4.28;;;1.60;;
83862;SDS011;73888;50.844;-0.132;2024-01-06T07:37:00;3.38;;;1.55;;
83862;SDS011;73888;50.844;-0.132;2024-01-06T07:42:37;2.97;;;1.35;;
83862;SDS011;73888;50.844;-0.132;2024-01-06T07:45:06;3.53;;;2.10;;
83862;SDS011;73888;50.844;-0.132;2024-01-06T07:47:32;5.30;;;2.58;;
83862;SDS011;73888;50.844;-0.132;2024-01-06T07:49:58;3.80;;;1.50;;
83862;SDS011;73888;50.844;-0.132;2024-01-06T07:52:24;3.85;;;1.95;;
83862;SDS011;73888;50.844;-0.132;2024-01-06T07:54:50;4.25;;;2.05;;
83862;SDS011;73888;50.844;-0.132;2024-01-06T07:57:16;5.95;;;2.45;;
83862;SDS011;73888;50.844;-0.132;2024-01-06T07:59:42;6.20;;;2.83;;
83862;SDS011;73888;50.844;-0.132;2024-01-06T08:02:11;4.43;;;1.98;;
83862;SDS011;73888;50.844;-0.132;2024-01-06T08:04:37;2.88;;;0.98;;
83862;SDS011;73888;50.844;-0.132;2024-01-06T08:07:04;2.78;;;1.40;;
83862;SDS011;73888;50.844;-0.132;2024-01-06T08:09:33;3.50;;;1.83;;
83862;SDS011;73888;50.844;-0.132;2024-01-06T08:11:59;3.33;;;1.23;;
83862;SDS011;73888;50.844;-0.132;2024-01-06T08:14:31;3.42;;;1.67;;
83862;SDS011;73888;50.844;-0.132;2024-01-06T08:17:00;3.70;;;1.60;;
83862;SDS011;73888;50.844;-0.132;2024-01-06T08:19:27;5.88;;;2.40;;
83862;SDS011;73888;50.844;-0.132;2024-01-06T08:21:55;4.05;;;2.20;;
83862;SDS011;73888;50.844;-0.132;2024-01-06T08:24:21;3.57;;;1.33;;
83862;SDS011;73888;50.844;-0.132;2024-01-06T08:29:39;3.53;;;1.33;;
83862;SDS011;73888;50.844;-0.132;2024-01-06T08:32:05;4.30;;;2.15;;
83862;SDS011;73888;50.844;-0.132;2024-01-06T08:34:35;4.25;;;1.77;;
83862;SDS011;73888;50.844;-0.132;2024-01-06T08:37:02;3.75;;;1.48;;
83862;SDS011;73888;50.844;-0.132;2024-01-06T08:42:20;5.00;;;2.15;;
83862;SDS011;73888;50.844;-0.132;2024-01-06T08:44:48;3.97;;;1.80;;
83862;SDS011;73888;50.844;-0.132;2024-01-06T08:50:09;5.40;;;2.78;;
83862;SDS011;73888;50.844;-0.132;2024-01-06T08:52:36;4.93;;;2.42;;
83862;SDS011;73888;50.844;-0.132;2024-01-06T08:55:03;6.53;;;2.95;;
83862;SDS011;73888;50.844;-0.132;2024-01-06T08:57:31;4.22;;;2.13;;
83862;SDS011;73888;50.844;-0.132;2024-01-06T08:59:57;4.43;;;1.90;;
83862;SDS011;73888;50.844;-0.132;2024-01-06T09:02:25;4.80;;;2.70;;
83862;SDS011;73888;50.844;-0.132;2024-01-06T09:04:51;5.32;;;2.90;;
83862;SDS011;73888;50.844;-0.132;2024-01-06T09:07:17;4.93;;;2.22;;
83862;SDS011;73888;50.844;-0.132;2024-01-06T09:09:49;5.22;;;2.45;;
83862;SDS011;73888;50.844;-0.132;2024-01-06T09:12:17;6.60;;;3.00;;
83862;SDS011;73888;50.844;-0.132;2024-01-06T09:14:43;4.65;;;1.90;;
83862;SDS011;73888;50.844;-0.132;2024-01-06T09:17:09;5.50;;;2.60;;
83862;SDS011;73888;50.844;-0.132;2024-01-06T09:19:40;5.55;;;2.28;;
83862;SDS011;73888;50.844;-0.132;2024-01-06T09:22:06;4.82;;;1.90;;
83862;SDS011;73888;50.844;-0.132;2024-01-06T09:24:35;5.13;;;2.10;;
83862;SDS011;73888;50.844;-0.132;2024-01-06T09:29:53;3.92;;;1.75;;
83862;SDS011;73888;50.844;-0.132;2024-01-06T09:32:22;4.22;;;2.13;;
83862;SDS011;73888;50.844;-0.132;2024-01-06T09:34:55;4.47;;;2.00;;
83862;SDS011;73888;50.844;-0.132;2024-01-06T09:37:21;4.80;;;2.15;;
83862;SDS011;73888;50.844;-0.132;2024-01-06T09:39:50;5.30;;;2.00;;
83862;SDS011;73888;50.844;-0.132;2024-01-06T09:42:16;5.50;;;2.15;;
83862;SDS011;73888;50.844;-0.132;2024-01-06T09:44:44;5.00;;;1.80;;
83862;SDS011;73888;50.844;-0.132;2024-01-06T09:47:11;5.40;;;1.73;;
83862;SDS011;73888;50.844;-0.132;2024-01-06T09:49:38;5.57;;;2.05;;
83862;SDS011;73888;50.844;-0.132;2024-01-06T09:52:10;5.40;;;1.88;;
83862;SDS011;73888;50.844;-0.132;2024-01-06T09:54:51;4.03;;;1.73;;
83862;SDS011;73888;50.844;-0.132;2024-01-06T09:57:18;4.45;;;1.77;;
83862;SDS011;73888;50.844;-0.132;2024-01-06T09:59:47;4.47;;;1.53;;
83862;SDS011;73888;50.844;-0.132;2024-01-06T10:02:16;5.63;;;2.13;;
83862;SDS011;73888;50.844;-0.132;2024-01-06T10:04:44;5.88;;;2.13;;
83862;SDS011;73888;50.844;-0.132;2024-01-06T10:07:10;4.47;;;1.95;;
83862;SDS011;73888;50.844;-0.132;2024-01-06T10:09:37;4.28;;;1.55;;
83862;SDS011;73888;50.844;-0.132;2024-01-06T10:12:05;6.43;;;1.93;;
83862;SDS011;73888;50.844;-0.132;2024-01-06T10:14:33;4.60;;;2.10;;
83862;SDS011;73888;50.844;-0.132;2024-01-06T10:17:07;6.07;;;2.45;;
83862;SDS011;73888;50.844;-0.132;2024-01-06T10:19:35;4.97;;;2.15;;
83862;SDS011;73888;50.844;-0.132;2024-01-06T10:22:06;5.32;;;1.83;;
83862;SDS011;73888;50.844;-0.132;2024-01-06T10:24:47;4.20;;;1.87;;
83862;SDS011;73888;50.844;-0.132;2024-01-06T10:27:13;4.70;;;1.48;;
83862;SDS011;73888;50.844;-0.132;2024-01-06T10:29:42;3.55;;;1.70;;
83862;SDS011;73888;50.844;-0.132;2024-01-06T10:32:24;4.32;;;2.53;;
83862;SDS011;73888;50.844;-0.132;2024-01-06T10:34:56;4.80;;;2.15;;
83862;SDS011;73888;50.844;-0.132;2024-01-06T10:37:23;5.30;;;2.42;;
83862;SDS011;73888;50.844;-0.132;2024-01-06T10:42:36;5.53;;;2.80;;
83862;SDS011;73888;50.844;-0.132;2024-01-06T10:45:12;5.32;;;2.70;;
83862;SDS011;73888;50.844;-0.132;2024-01-06T10:47:41;6.40;;;2.67;;
83862;SDS011;73888;50.844;-0.132;2024-01-06T10:50:10;4.72;;;2.72;;
83862;SDS011;73888;50.844;-0.132;2024-01-06T10:52:37;5.03;;;2.00;;
83862;SDS011;73888;50.844;-0.132;2024-01-06T10:55:05;3.38;;;1.92;;
83862;SDS011;73888;50.844;-0.132;2024-01-06T10:57:31;3.75;;;1.95;;
83862;SDS011;73888;50.844;-0.132;2024-01-06T10:59:58;4.47;;;2.15;;
83862;SDS011;73888;50.844;-0.132;2024-01-06T11:02:29;5.00;;;2.15;;
83862;SDS011;73888;50.844;-0.132;2024-01-06T11:04:55;3.00;;;1.00;;
83862;SDS011;73888;50.844;-0.132;2024-01-06T11:07:23;5.07;;;2.13;;
83862;SDS011;73888;50.844;-0.132;2024-01-06T11:10:00;3.47;;;1.55;;
83862;SDS011;73888;50.844;-0.132;2024-01-06T11:12:28;4.37;;;1.70;;
83862;SDS011;73888;50.844;-0.132;2024-01-06T11:14:56;4.25;;;1.45;;
83862;SDS011;73888;50.844;-0.132;2024-01-06T11:20:11;3.45;;;1.48;;
83862;SDS011;73888;50.844;-0.132;2024-01-06T11:22:37;3.28;;;1.23;;
83862;SDS011;73888;50.844;-0.132;2024-01-06T11:25:08;4.37;;;1.80;;
83862;SDS011;73888;50.844;-0.132;2024-01-06T11:27:36;3.20;;;1.33;;
83862;SDS011;73888;50.844;-0.132;2024-01-06T11:30:03;2.78;;;1.55;;
83862;SDS011;73888;50.844;-0.132;2024-01-06T11:32:36;2.80;;;1.20;;
83862;SDS011;73888;50.844;-0.132;2024-01-06T11:35:10;2.80;;;1.50;;
83862;SDS011;73888;50.844;-0.132;2024-01-06T11:40:10;3.83;;;1.60;;
83862;SDS011;73888;50.844;-0.132;2024-01-06T11:42:42;3.13;;;1.70;;
83862;SDS011;73888;50.844;-0.132;2024-01-06T11:45:11;3.60;;;1.20;;
83862;SDS011;73888;50.844;-0.132;2024-01-06T11:47:38;4.53;;;1.55;;
83862;SDS011;73888;50.844;-0.132;2024-01-06T11:50:07;3.43;;;1.20;;
83862;SDS011;73888;50.844;-0.132;2024-01-06T11:52:33;2.90;;;1.42;;
83862;SDS011;73888;50.844;-0.132;2024-01-06T11:55:00;3.30;;;1.45;;
83862;SDS011;73888;50.844;-0.132;2024-01-06T11:57:31;5.57;;;1.38;;
83862;SDS011;73888;50.844;-0.132;2024-01-06T11:59:58;3.22;;;1.65;;
83862;SDS011;73888;50.844;-0.132;2024-01-06T12:02:24;3.13;;;1.60;;
83862;SDS011;73888;50.844;-0.132;2024-01-06T12:04:53;6.50;;;1.42;;
83862;SDS011;73888;50.844;-0.132;2024-01-06T12:07:20;4.53;;;1.70;;
83862;SDS011;73888;50.844;-0.132;2024-01-06T12:10:00;3.50;;;1.73;;
83862;SDS011;73888;50.844;-0.132;2024-01-06T12:12:26;2.72;;;1.27;;
83862;SDS011;73888;50.844;-0.132;2024-01-06T12:14:52;5.17;;;1.73;;
83862;SDS011;73888;50.844;-0.132;2024-01-06T12:17:19;4.13;;;1.05;;
83862;SDS011;73888;50.844;-0.132;2024-01-06T12:19:47;2.42;;;0.85;;
83862;SDS011;73888;50.844;-0.132;2024-01-06T12:22:14;3.60;;;1.92;;
83862;SDS011;73888;50.844;-0.132;2024-01-06T12:24:40;3.65;;;1.30;;
83862;SDS011;73888;50.844;-0.132;2024-01-06T12:27:07;3.17;;;1.83;;
83862;SDS011;73888;50.844;-0.132;2024-01-06T12:29:37;3.90;;;1.38;;
83862;SDS011;73888;50.844;-0.132;2024-01-06T12:32:04;3.75;;;1.52;;
83862;SDS011;73888;50.844;-0.132;2024-01-06T12:34:32;3.90;;;1.70;;
83862;SDS011;73888;50.844;-0.132;2024-01-06T12:37:01;2.40;;;1.40;;
83862;SDS011;73888;50.844;-0.132;2024-01-06T12:39:28;4.00;;;1.43;;
83862;SDS011;73888;50.844;-0.132;2024-01-06T12:41:54;3.08;;;1.30;;
83862;SDS011;73888;50.844;-0.132;2024-01-06T12:44:20;2.67;;;1.33;;
83862;SDS011;73888;50.844;-0.132;2024-01-06T12:49:32;2.97;;;1.42;;
83862;SDS011;73888;50.844;-0.132;2024-01-06T12:51:58;3.80;;;1.58;;
83862;SDS011;73888;50.844;-0.132;2024-01-06T12:57:33;3.75;;;1.38;;
83862;SDS011;73888;50.844;-0.132;2024-01-06T13:00:00;5.35;;;1.10;;
83862;SDS011;73888;50.844;-0.132;2024-01-06T13:02:26;2.37;;;1.10;;
83862;SDS011;73888;50.844;-0.132;2024-01-06T13:04:52;2.63;;;0.85;;
83862;SDS011;73888;50.844;-0.132;2024-01-06T13:07:19;2.70;;;1.17;;
83862;SDS011;73888;50.844;-0.132;2024-01-06T13:09:45;2.72;;;1.60;;
83862;SDS011;73888;50.844;-0.132;2024-01-06T13:12:11;3.50;;;1.30;;
83862;SDS011;73888;50.844;-0.132;2024-01-06T13:14:37;2.72;;;1.83;;
83862;SDS011;73888;50.844;-0.132;2024-01-06T13:17:03;2.78;;;1.55;;
83862;SDS011;73888;50.844;-0.132;2024-01-06T13:19:31;2.72;;;1.38;;
83862;SDS011;73888;50.844;-0.132;2024-01-06T13:24:48;2.60;;;1.20;;
83862;SDS011;73888;50.844;-0.132;2024-01-06T13:27:14;2.97;;;1.43;;
83862;SDS011;73888;50.844;-0.132;2024-01-06T13:29:40;3.42;;;1.77;;
83862;SDS011;73888;50.844;-0.132;2024-01-06T13:32:08;2.85;;;1.08;;
83862;SDS011;73888;50.844;-0.132;2024-01-06T13:34:35;2.95;;;1.50;;
83862;SDS011;73888;50.844;-0.132;2024-01-06T13:37:02;2.80;;;1.40;;
83862;SDS011;73888;50.844;-0.132;2024-01-06T13:42:38;3.47;;;1.58;;
83862;SDS011;73888;50.844;-0.132;2024-01-06T13:45:05;2.92;;;1.08;;
83862;SDS011;73888;50.844;-0.132;2024-01-06T13:47:31;2.60;;;0.95;;
83862;SDS011;73888;50.844;-0.132;2024-01-06T13:49:57;2.80;;;1.55;;
83862;SDS011;73888;50.844;-0.132;2024-01-06T13:52:25;2.88;;;1.17;;
83862;SDS011;73888;50.844;-0.132;2024-01-06T13:54:51;2.65;;;1.63;;
83862;SDS011;73888;50.844;-0.132;2024-01-06T13:57:17;2.20;;;0.93;;
83862;SDS011;73888;50.844;-0.132;2024-01-06T13:59:43;4.32;;;1.27;;
83862;SDS011;73888;50.844;-0.132;2024-01-06T14:02:09;3.73;;;1.70;;
83862;SDS011;73888;50.844;-0.132;2024-01-06T14:04:35;3.92;;;1.77;;
83862;SDS011;73888;50.844;-0.132;2024-01-06T14:07:01;4.22;;;1.60;;
83862;SDS011;73888;50.844;-0.132;2024-01-06T14:09:31;2.70;;;1.67;;
83862;SDS011;73888;50.844;-0.132;2024-01-06T14:11:57;3.72;;;1.85;;
83862;SDS011;73888;50.844;-0.132;2024-01-06T14:14:23;3.60;;;1.65;;
83862;SDS011;73888;50.844;-0.132;2024-01-06T14:19:32;3.13;;;1.83;;
83862;SDS011;73888;50.844;-0.132;2024-01-06T14:21:58;3.25;;;1.65;;
83862;SDS011;73888;50.844;-0.132;2024-01-06T14:24:25;2.80;;;1.70;;
83862;SDS011;73888;50.844;-0.132;2024-01-06T14:26:54;3.27;;;1.10;;
83862;SDS011;73888;50.844;-0.132;2024-01-06T14:29:23;2.20;;;1.10;;
83862;SDS011;73888;50.844;-0.132;2024-01-06T14:31:49;4.25;;;1.77;;
83862;SDS011;73888;50.844;-0.132;2024-01-06T14:34:17;3.08;;;1.58;;
83862;SDS011;73888;50.844;-0.132;2024-01-06T14:36:43;2.90;;;1.65;;
83862;SDS011;73888;50.844;-0.132;2024-01-06T14:39:14;3.50;;;2.05;;
83862;SDS011;73888;50.844;-0.132;2024-01-06T14:41:41;5.75;;;2.60;;
83862;SDS011;73888;50.844;-0.132;2024-01-06T14:47:17;2.83;;;1.42;;
83862;SDS011;73888;50.844;-0.132;2024-01-06T14:49:43;5.00;;;2.05;;
83862;SDS011;73888;50.844;-0.132;2024-01-06T14:52:09;4.32;;;1.67;;
83862;SDS011;73888;50.844;-0.132;2024-01-06T14:54:36;3.40;;;1.88;;
83862;SDS011;73888;50.844;-0.132;2024-01-06T14:57:02;3.13;;;1.52;;
83862;SDS011;73888;50.844;-0.132;2024-01-06T14:59:45;4.43;;;1.65;;
83862;SDS011;73888;50.844;-0.132;2024-01-06T15:02:12;4.00;;;2.10;;
83862;SDS011;73888;50.844;-0.132;2024-01-06T15:04:42;3.67;;;2.28;;
83862;SDS011;73888;50.844;-0.132;2024-01-06T15:07:19;4.07;;;2.25;;
83862;SDS011;73888;50.844;-0.132;2024-01-06T15:09:45;3.30;;;2.15;;
83862;SDS011;73888;50.844;-0.132;2024-01-06T15:12:11;3.08;;;2.20;;
83862;SDS011;73888;50.844;-0.132;2024-01-06T15:14:37;2.60;;;1.45;;
83862;SDS011;73888;50.844;-0.132;2024-01-06T15:17:03;2.80;;;1.30;;
83862;SDS011;73888;50.844;-0.132;2024-01-06T15:19:29;2.50;;;1.33;;
83862;SDS011;73888;50.844;-0.132;2024-01-06T15:21:58;2.83;;;1.77;;
83862;SDS011;73888;50.844;-0.132;2024-01-06T15:24:25;3.00;;;1.45;;
83862;SDS011;73888;50.844;-0.132;2024-01-06T15:26:54;2.63;;;1.63;;
83862;SDS011;73888;50.844;-0.132;2024-01-06T15:29:20;2.72;;;1.30;;